Terminal Aerodrome Forecast
Issued by NWS

Home | Current Version | Previous Version | Text Only | Print | Product List | Glossary On
Versions: 1 2 3 4 5 6 7 8 9 10 11 12 13 14 15 16 17 18 19 20 21 22 23
000
FTUS45 KTFX 261600 AAA
TAFLWT
TAF AMD
KLWT 261652Z 2617/2712 VRB05KT 3SM -SN BR SCT015 OVC025
      TEMPO 2617/2620 1SM -SN BR BKN015
     FM262000 VRB06KT 5SM -SN BR SCT025 BKN040
      TEMPO 2620/2624 3SM -SN BR BKN030
     FM270600 18008KT P6SM SCT040 BKN070=

USA.gov is the U.S. government's official web portal to all federal, state and local government web resources and services.